sensor_id;sensor_type;location;lat;lon;timestamp;P1;durP1;ratioP1;P2;durP2;ratioP2
28028;SDS011;15345;59.364;18.016;2023-08-12T00:00:58;5.22;;;1.77;;
28028;SDS011;15345;59.364;18.016;2023-08-12T00:02:17;6.57;;;1.63;;
28028;SDS011;15345;59.364;18.016;2023-08-12T00:03:35;4.57;;;1.58;;
28028;SDS011;15345;59.364;18.016;2023-08-12T00:04:54;8.10;;;1.60;;
28028;SDS011;15345;59.364;18.016;2023-08-12T00:06:13;4.88;;;1.83;;
28028;SDS011;15345;59.364;18.016;2023-08-12T00:07:33;4.70;;;1.60;;
28028;SDS011;15345;59.364;18.016;2023-08-12T00:08:52;2.47;;;1.55;;
28028;SDS011;15345;59.364;18.016;2023-08-12T00:10:11;6.82;;;1.75;;
28028;SDS011;15345;59.364;18.016;2023-08-12T00:11:30;2.78;;;1.45;;
28028;SDS011;15345;59.364;18.016;2023-08-12T00:12:49;4.93;;;2.00;;
28028;SDS011;15345;59.364;18.016;2023-08-12T00:14:08;3.50;;;1.60;;
28028;SDS011;15345;59.364;18.016;2023-08-12T00:15:27;3.70;;;1.83;;
28028;SDS011;15345;59.364;18.016;2023-08-12T00:16:47;4.05;;;1.27;;
28028;SDS011;15345;59.364;18.016;2023-08-12T00:18:06;2.33;;;1.33;;
28028;SDS011;15345;59.364;18.016;2023-08-12T00:19:25;5.35;;;1.92;;
28028;SDS011;15345;59.364;18.016;2023-08-12T00:20:44;4.65;;;2.00;;
28028;SDS011;15345;59.364;18.016;2023-08-12T00:22:03;6.05;;;1.88;;
28028;SDS011;15345;59.364;18.016;2023-08-12T00:23:23;6.05;;;1.80;;
28028;SDS011;15345;59.364;18.016;2023-08-12T00:24:42;3.38;;;1.50;;
28028;SDS011;15345;59.364;18.016;2023-08-12T00:26:01;6.05;;;1.80;;
28028;SDS011;15345;59.364;18.016;2023-08-12T00:27:20;3.75;;;1.83;;
28028;SDS011;15345;59.364;18.016;2023-08-12T00:28:39;5.85;;;1.85;;
28028;SDS011;15345;59.364;18.016;2023-08-12T00:29:58;7.10;;;2.10;;
28028;SDS011;15345;59.364;18.016;2023-08-12T00:31:17;3.17;;;1.80;;
28028;SDS011;15345;59.364;18.016;2023-08-12T00:32:36;2.90;;;1.80;;
28028;SDS011;15345;59.364;18.016;2023-08-12T00:33:55;8.00;;;2.15;;
28028;SDS011;15345;59.364;18.016;2023-08-12T00:35:14;2.72;;;1.60;;
28028;SDS011;15345;59.364;18.016;2023-08-12T00:36:33;5.30;;;1.50;;
28028;SDS011;15345;59.364;18.016;2023-08-12T00:37:52;4.97;;;2.28;;
28028;SDS011;15345;59.364;18.016;2023-08-12T00:39:11;2.25;;;1.50;;
28028;SDS011;15345;59.364;18.016;2023-08-12T00:40:30;6.00;;;1.73;;
28028;SDS011;15345;59.364;18.016;2023-08-12T00:41:50;4.93;;;1.70;;
28028;SDS011;15345;59.364;18.016;2023-08-12T00:43:09;3.30;;;1.75;;
28028;SDS011;15345;59.364;18.016;2023-08-12T00:44:28;7.85;;;2.58;;
28028;SDS011;15345;59.364;18.016;2023-08-12T00:45:47;7.72;;;2.33;;
28028;SDS011;15345;59.364;18.016;2023-08-12T00:47:06;4.55;;;2.00;;
28028;SDS011;15345;59.364;18.016;2023-08-12T00:48:25;4.05;;;1.95;;
28028;SDS011;15345;59.364;18.016;2023-08-12T00:49:44;4.25;;;1.80;;
28028;SDS011;15345;59.364;18.016;2023-08-12T00:51:04;7.05;;;2.00;;
28028;SDS011;15345;59.364;18.016;2023-08-12T00:52:23;7.10;;;1.80;;
28028;SDS011;15345;59.364;18.016;2023-08-12T00:53:42;3.58;;;2.22;;
28028;SDS011;15345;59.364;18.016;2023-08-12T00:55:01;7.18;;;2.17;;
28028;SDS011;15345;59.364;18.016;2023-08-12T00:56:20;6.47;;;1.95;;
28028;SDS011;15345;59.364;18.016;2023-08-12T00:57:39;5.15;;;1.98;;
28028;SDS011;15345;59.364;18.016;2023-08-12T00:58:59;3.20;;;1.65;;
28028;SDS011;15345;59.364;18.016;2023-08-12T01:00:18;2.60;;;1.92;;
28028;SDS011;15345;59.364;18.016;2023-08-12T01:01:40;4.63;;;1.70;;
28028;SDS011;15345;59.364;18.016;2023-08-12T01:03:02;3.85;;;2.15;;
28028;SDS011;15345;59.364;18.016;2023-08-12T01:04:21;2.58;;;1.92;;
28028;SDS011;15345;59.364;18.016;2023-08-12T01:05:41;3.83;;;2.13;;
28028;SDS011;15345;59.364;18.016;2023-08-12T01:07:00;3.17;;;1.83;;
28028;SDS011;15345;59.364;18.016;2023-08-12T01:08:19;3.92;;;2.03;;
28028;SDS011;15345;59.364;18.016;2023-08-12T01:09:38;5.82;;;1.77;;
28028;SDS011;15345;59.364;18.016;2023-08-12T01:10:59;2.08;;;1.90;;
28028;SDS011;15345;59.364;18.016;2023-08-12T01:12:32;4.20;;;1.90;;
28028;SDS011;15345;59.364;18.016;2023-08-12T01:13:57;4.55;;;1.95;;
28028;SDS011;15345;59.364;18.016;2023-08-12T01:15:18;6.95;;;1.98;;
28028;SDS011;15345;59.364;18.016;2023-08-12T01:16:43;4.07;;;1.80;;
28028;SDS011;15345;59.364;18.016;2023-08-12T01:18:04;4.85;;;2.33;;
28028;SDS011;15345;59.364;18.016;2023-08-12T01:20:48;3.70;;;2.25;;
28028;SDS011;15345;59.364;18.016;2023-08-12T01:22:08;7.82;;;1.98;;
28028;SDS011;15345;59.364;18.016;2023-08-12T01:23:28;3.72;;;1.90;;
28028;SDS011;15345;59.364;18.016;2023-08-12T01:24:47;3.85;;;1.75;;
28028;SDS011;15345;59.364;18.016;2023-08-12T01:26:06;6.15;;;1.80;;
28028;SDS011;15345;59.364;18.016;2023-08-12T01:27:25;3.95;;;1.55;;
28028;SDS011;15345;59.364;18.016;2023-08-12T01:28:44;5.60;;;2.20;;
28028;SDS011;15345;59.364;18.016;2023-08-12T01:30:04;4.05;;;2.40;;
28028;SDS011;15345;59.364;18.016;2023-08-12T01:31:41;4.88;;;1.92;;
28028;SDS011;15345;59.364;18.016;2023-08-12T01:33:08;4.18;;;1.77;;
28028;SDS011;15345;59.364;18.016;2023-08-12T01:34:35;6.43;;;1.70;;
28028;SDS011;15345;59.364;18.016;2023-08-12T01:36:38;3.55;;;1.98;;
28028;SDS011;15345;59.364;18.016;2023-08-12T01:37:38;5.75;;;2.28;;
28028;SDS011;15345;59.364;18.016;2023-08-12T01:38:58;5.30;;;1.92;;
28028;SDS011;15345;59.364;18.016;2023-08-12T01:40:18;5.03;;;2.17;;
28028;SDS011;15345;59.364;18.016;2023-08-12T01:41:37;3.72;;;1.92;;
28028;SDS011;15345;59.364;18.016;2023-08-12T01:42:57;6.95;;;2.17;;
28028;SDS011;15345;59.364;18.016;2023-08-12T01:44:16;3.92;;;1.73;;
28028;SDS011;15345;59.364;18.016;2023-08-12T01:45:35;8.25;;;2.17;;
28028;SDS011;15345;59.364;18.016;2023-08-12T01:46:54;5.15;;;2.00;;
28028;SDS011;15345;59.364;18.016;2023-08-12T01:48:13;4.55;;;1.92;;
28028;SDS011;15345;59.364;18.016;2023-08-12T01:49:32;3.53;;;1.70;;
28028;SDS011;15345;59.364;18.016;2023-08-12T01:50:51;7.57;;;1.75;;
28028;SDS011;15345;59.364;18.016;2023-08-12T01:52:11;3.88;;;1.60;;
28028;SDS011;15345;59.364;18.016;2023-08-12T01:53:30;3.45;;;1.67;;
28028;SDS011;15345;59.364;18.016;2023-08-12T01:54:49;5.25;;;1.83;;
28028;SDS011;15345;59.364;18.016;2023-08-12T01:56:08;4.60;;;2.17;;
28028;SDS011;15345;59.364;18.016;2023-08-12T01:57:27;4.93;;;1.90;;
28028;SDS011;15345;59.364;18.016;2023-08-12T01:58:46;5.00;;;2.13;;
28028;SDS011;15345;59.364;18.016;2023-08-12T02:00:05;5.68;;;2.20;;
28028;SDS011;15345;59.364;18.016;2023-08-12T02:01:25;5.00;;;1.83;;
28028;SDS011;15345;59.364;18.016;2023-08-12T02:02:43;4.18;;;2.20;;
28028;SDS011;15345;59.364;18.016;2023-08-12T02:04:05;3.25;;;2.00;;
28028;SDS011;15345;59.364;18.016;2023-08-12T02:05:24;3.58;;;1.80;;
28028;SDS011;15345;59.364;18.016;2023-08-12T02:06:44;2.92;;;1.75;;
28028;SDS011;15345;59.364;18.016;2023-08-12T02:08:03;3.92;;;2.13;;
28028;SDS011;15345;59.364;18.016;2023-08-12T02:09:22;5.55;;;2.40;;
28028;SDS011;15345;59.364;18.016;2023-08-12T02:10:41;4.40;;;2.22;;
28028;SDS011;15345;59.364;18.016;2023-08-12T02:12:00;7.38;;;2.20;;
28028;SDS011;15345;59.364;18.016;2023-08-12T02:13:20;4.95;;;2.08;;
28028;SDS011;15345;59.364;18.016;2023-08-12T02:14:39;7.03;;;2.50;;
28028;SDS011;15345;59.364;18.016;2023-08-12T02:15:58;6.47;;;2.25;;
28028;SDS011;15345;59.364;18.016;2023-08-12T02:17:17;5.20;;;2.00;;
28028;SDS011;15345;59.364;18.016;2023-08-12T02:18:36;6.93;;;2.40;;
28028;SDS011;15345;59.364;18.016;2023-08-12T02:19:55;5.22;;;2.35;;
28028;SDS011;15345;59.364;18.016;2023-08-12T02:21:13;2.67;;;2.20;;
28028;SDS011;15345;59.364;18.016;2023-08-12T02:22:32;2.33;;;2.05;;
28028;SDS011;15345;59.364;18.016;2023-08-12T02:23:51;5.20;;;2.70;;
28028;SDS011;15345;59.364;18.016;2023-08-12T02:25:11;3.00;;;2.10;;
28028;SDS011;15345;59.364;18.016;2023-08-12T02:26:30;8.10;;;2.20;;
28028;SDS011;15345;59.364;18.016;2023-08-12T02:27:49;4.15;;;2.58;;
28028;SDS011;15345;59.364;18.016;2023-08-12T02:29:08;7.70;;;2.67;;
28028;SDS011;15345;59.364;18.016;2023-08-12T02:30:28;7.72;;;2.30;;
28028;SDS011;15345;59.364;18.016;2023-08-12T02:31:47;6.35;;;2.42;;
28028;SDS011;15345;59.364;18.016;2023-08-12T02:33:06;3.13;;;2.35;;
28028;SDS011;15345;59.364;18.016;2023-08-12T02:34:25;2.80;;;2.10;;
28028;SDS011;15345;59.364;18.016;2023-08-12T02:35:44;9.60;;;2.70;;
28028;SDS011;15345;59.364;18.016;2023-08-12T02:37:03;7.13;;;2.30;;
28028;SDS011;15345;59.364;18.016;2023-08-12T02:38:22;5.65;;;2.50;;
28028;SDS011;15345;59.364;18.016;2023-08-12T02:39:41;6.05;;;2.47;;
28028;SDS011;15345;59.364;18.016;2023-08-12T02:41:00;4.78;;;2.40;;
28028;SDS011;15345;59.364;18.016;2023-08-12T02:42:19;4.60;;;2.08;;
28028;SDS011;15345;59.364;18.016;2023-08-12T02:43:38;5.47;;;2.00;;
28028;SDS011;15345;59.364;18.016;2023-08-12T02:44:57;5.25;;;2.92;;
28028;SDS011;15345;59.364;18.016;2023-08-12T02:46:18;5.05;;;2.83;;
28028;SDS011;15345;59.364;18.016;2023-08-12T02:47:37;3.47;;;2.28;;
28028;SDS011;15345;59.364;18.016;2023-08-12T02:48:56;3.47;;;1.67;;
28028;SDS011;15345;59.364;18.016;2023-08-12T02:50:16;5.78;;;1.95;;
28028;SDS011;15345;59.364;18.016;2023-08-12T02:51:35;3.85;;;2.08;;
28028;SDS011;15345;59.364;18.016;2023-08-12T02:52:54;3.90;;;1.90;;
28028;SDS011;15345;59.364;18.016;2023-08-12T02:54:13;6.22;;;2.10;;
28028;SDS011;15345;59.364;18.016;2023-08-12T02:55:33;7.63;;;2.22;;
28028;SDS011;15345;59.364;18.016;2023-08-12T02:56:52;3.13;;;2.20;;
28028;SDS011;15345;59.364;18.016;2023-08-12T02:58:11;5.00;;;2.33;;
28028;SDS011;15345;59.364;18.016;2023-08-12T02:59:30;7.05;;;3.13;;
28028;SDS011;15345;59.364;18.016;2023-08-12T03:00:49;8.15;;;2.63;;
28028;SDS011;15345;59.364;18.016;2023-08-12T03:02:09;6.68;;;2.53;;
28028;SDS011;15345;59.364;18.016;2023-08-12T03:03:29;5.80;;;2.67;;
28028;SDS011;15345;59.364;18.016;2023-08-12T03:04:47;4.18;;;2.38;;
28028;SDS011;15345;59.364;18.016;2023-08-12T03:06:07;4.85;;;2.75;;
28028;SDS011;15345;59.364;18.016;2023-08-12T03:07:26;3.97;;;2.20;;
28028;SDS011;15345;59.364;18.016;2023-08-12T03:08:45;5.53;;;2.40;;
28028;SDS011;15345;59.364;18.016;2023-08-12T03:10:04;5.25;;;2.22;;
28028;SDS011;15345;59.364;18.016;2023-08-12T03:11:23;4.43;;;2.20;;
28028;SDS011;15345;59.364;18.016;2023-08-12T03:12:42;2.35;;;2.00;;
28028;SDS011;15345;59.364;18.016;2023-08-12T03:14:01;6.18;;;2.53;;
28028;SDS011;15345;59.364;18.016;2023-08-12T03:15:20;5.45;;;2.50;;
28028;SDS011;15345;59.364;18.016;2023-08-12T03:16:38;3.75;;;2.15;;
28028;SDS011;15345;59.364;18.016;2023-08-12T03:17:57;4.82;;;2.40;;
28028;SDS011;15345;59.364;18.016;2023-08-12T03:19:16;3.75;;;1.88;;
28028;SDS011;15345;59.364;18.016;2023-08-12T03:20:36;5.35;;;2.10;;
28028;SDS011;15345;59.364;18.016;2023-08-12T03:21:55;5.28;;;2.22;;
28028;SDS011;15345;59.364;18.016;2023-08-12T03:23:14;5.70;;;2.28;;
28028;SDS011;15345;59.364;18.016;2023-08-12T03:24:33;5.22;;;2.55;;
28028;SDS011;15345;59.364;18.016;2023-08-12T03:25:52;4.45;;;2.28;;
28028;SDS011;15345;59.364;18.016;2023-08-12T03:27:11;5.38;;;2.20;;
28028;SDS011;15345;59.364;18.016;2023-08-12T03:28:30;3.92;;;2.10;;
28028;SDS011;15345;59.364;18.016;2023-08-12T03:29:50;4.60;;;2.10;;
28028;SDS011;15345;59.364;18.016;2023-08-12T03:31:09;2.65;;;2.00;;
28028;SDS011;15345;59.364;18.016;2023-08-12T03:32:27;3.47;;;2.22;;
28028;SDS011;15345;59.364;18.016;2023-08-12T03:33:46;5.82;;;2.13;;
28028;SDS011;15345;59.364;18.016;2023-08-12T03:35:05;5.97;;;2.47;;
28028;SDS011;15345;59.364;18.016;2023-08-12T03:36:25;2.78;;;2.15;;
28028;SDS011;15345;59.364;18.016;2023-08-12T03:37:43;5.50;;;2.10;;
28028;SDS011;15345;59.364;18.016;2023-08-12T03:39:03;3.72;;;2.00;;
28028;SDS011;15345;59.364;18.016;2023-08-12T03:40:22;5.57;;;1.80;;
28028;SDS011;15345;59.364;18.016;2023-08-12T03:41:40;4.85;;;2.08;;
28028;SDS011;15345;59.364;18.016;2023-08-12T03:42:59;2.17;;;1.92;;
28028;SDS011;15345;59.364;18.016;2023-08-12T03:44:18;3.25;;;1.77;;
28028;SDS011;15345;59.364;18.016;2023-08-12T03:45:40;4.10;;;1.98;;
28028;SDS011;15345;59.364;18.016;2023-08-12T03:47:00;5.18;;;2.22;;
28028;SDS011;15345;59.364;18.016;2023-08-12T03:48:19;4.80;;;1.80;;
28028;SDS011;15345;59.364;18.016;2023-08-12T03:49:39;4.10;;;2.05;;
28028;SDS011;15345;59.364;18.016;2023-08-12T03:50:57;2.42;;;1.70;;
28028;SDS011;15345;59.364;18.016;2023-08-12T03:52:16;7.35;;;1.83;;
28028;SDS011;15345;59.364;18.016;2023-08-12T03:53:36;2.03;;;1.83;;
28028;SDS011;15345;59.364;18.016;2023-08-12T03:54:54;4.78;;;1.92;;
28028;SDS011;15345;59.364;18.016;2023-08-12T03:56:13;2.33;;;1.92;;
28028;SDS011;15345;59.364;18.016;2023-08-12T03:57:35;5.75;;;2.85;;
28028;SDS011;15345;59.364;18.016;2023-08-12T03:58:53;2.70;;;1.80;;
28028;SDS011;15345;59.364;18.016;2023-08-12T04:00:13;7.90;;;2.15;;
28028;SDS011;15345;59.364;18.016;2023-08-12T04:01:32;4.57;;;1.80;;
28028;SDS011;15345;59.364;18.016;2023-08-12T04:02:59;3.88;;;1.75;;
28028;SDS011;15345;59.364;18.016;2023-08-12T04:04:18;2.72;;;1.67;;
28028;SDS011;15345;59.364;18.016;2023-08-12T04:05:37;2.70;;;1.65;;
28028;SDS011;15345;59.364;18.016;2023-08-12T04:06:56;5.00;;;1.95;;
28028;SDS011;15345;59.364;18.016;2023-08-12T04:08:15;3.63;;;1.98;;
28028;SDS011;15345;59.364;18.016;2023-08-12T04:09:34;3.25;;;1.85;;
28028;SDS011;15345;59.364;18.016;2023-08-12T04:10:52;4.05;;;1.60;;
28028;SDS011;15345;59.364;18.016;2023-08-12T04:12:11;5.68;;;1.90;;
28028;SDS011;15345;59.364;18.016;2023-08-12T04:13:30;2.72;;;1.88;;
28028;SDS011;15345;59.364;18.016;2023-08-12T04:14:49;4.30;;;1.80;;
28028;SDS011;15345;59.364;18.016;2023-08-12T04:16:08;2.90;;;1.65;;
28028;SDS011;15345;59.364;18.016;2023-08-12T04:17:27;10.35;;;1.70;;
28028;SDS011;15345;59.364;18.016;2023-08-12T04:18:46;2.05;;;1.40;;
28028;SDS011;15345;59.364;18.016;2023-08-12T04:20:05;3.35;;;2.22;;
28028;SDS011;15345;59.364;18.016;2023-08-12T04:21:25;3.08;;;1.58;;
28028;SDS011;15345;59.364;18.016;2023-08-12T04:22:44;4.22;;;1.40;;
28028;SDS011;15345;59.364;18.016;2023-08-12T04:24:03;3.13;;;1.50;;
28028;SDS011;15345;59.364;18.016;2023-08-12T04:25:23;2.05;;;1.40;;
28028;SDS011;15345;59.364;18.016;2023-08-12T04:26:41;4.63;;;1.70;;
28028;SDS011;15345;59.364;18.016;2023-08-12T04:28:00;2.75;;;2.00;;
28028;SDS011;15345;59.364;18.016;2023-08-12T04:29:19;2.38;;;1.70;;
28028;SDS011;15345;59.364;18.016;2023-08-12T04:30:45;2.78;;;1.30;;
28028;SDS011;15345;59.364;18.016;2023-08-12T04:32:04;2.20;;;1.40;;
28028;SDS011;15345;59.364;18.016;2023-08-12T04:33:23;3.08;;;1.55;;
28028;SDS011;15345;59.364;18.016;2023-08-12T04:34:42;2.03;;;1.38;;
28028;SDS011;15345;59.364;18.016;2023-08-12T04:36:01;3.45;;;1.67;;
28028;SDS011;15345;59.364;18.016;2023-08-12T04:37:21;2.75;;;1.65;;
28028;SDS011;15345;59.364;18.016;2023-08-12T04:38:40;2.70;;;1.67;;
28028;SDS011;15345;59.364;18.016;2023-08-12T04:39:59;2.88;;;1.30;;
28028;SDS011;15345;59.364;18.016;2023-08-12T04:41:18;5.22;;;1.50;;
28028;SDS011;15345;59.364;18.016;2023-08-12T04:42:37;5.75;;;1.60;;
28028;SDS011;15345;59.364;18.016;2023-08-12T04:43:56;2.22;;;1.33;;
28028;SDS011;15345;59.364;18.016;2023-08-12T04:45:15;3.03;;;1.40;;
28028;SDS011;15345;59.364;18.016;2023-08-12T04:46:33;4.15;;;1.33;;
28028;SDS011;15345;59.364;18.016;2023-08-12T04:47:52;2.38;;;1.30;;
28028;SDS011;15345;59.364;18.016;2023-08-12T04:49:12;3.30;;;1.30;;
28028;SDS011;15345;59.364;18.016;2023-08-12T04:50:31;2.75;;;1.27;;
28028;SDS011;15345;59.364;18.016;2023-08-12T04:51:51;3.35;;;1.60;;
28028;SDS011;15345;59.364;18.016;2023-08-12T04:53:10;1.55;;;1.40;;
28028;SDS011;15345;59.364;18.016;2023-08-12T04:54:29;3.33;;;1.42;;
28028;SDS011;15345;59.364;18.016;2023-08-12T04:55:51;2.05;;;1.42;;
28028;SDS011;15345;59.364;18.016;2023-08-12T04:57:10;2.03;;;1.60;;
28028;SDS011;15345;59.364;18.016;2023-08-12T04:58:29;1.95;;;1.27;;
28028;SDS011;15345;59.364;18.016;2023-08-12T04:59:48;2.80;;;1.58;;
28028;SDS011;15345;59.364;18.016;2023-08-12T05:01:07;2.72;;;1.58;;
28028;SDS011;15345;59.364;18.016;2023-08-12T05:02:27;4.97;;;1.23;;
28028;SDS011;15345;59.364;18.016;2023-08-12T05:03:45;2.17;;;1.58;;
28028;SDS011;15345;59.364;18.016;2023-08-12T05:05:04;2.92;;;1.73;;
28028;SDS011;15345;59.364;18.016;2023-08-12T05:06:23;3.80;;;1.35;;
28028;SDS011;15345;59.364;18.016;2023-08-12T05:07:42;1.92;;;1.67;;
28028;SDS011;15345;59.364;18.016;2023-08-12T05:09:03;2.50;;;1.20;;
28028;SDS011;15345;59.364;18.016;2023-08-12T05:10:22;2.47;;;1.20;;
28028;SDS011;15345;59.364;18.016;2023-08-12T05:11:41;3.40;;;1.35;;
28028;SDS011;15345;59.364;18.016;2023-08-12T05:13:00;2.17;;;1.10;;
28028;SDS011;15345;59.364;18.016;2023-08-12T05:14:19;2.20;;;1.30;;
28028;SDS011;15345;59.364;18.016;2023-08-12T05:15:38;2.75;;;1.42;;
28028;SDS011;15345;59.364;18.016;2023-08-12T05:16:57;3.33;;;1.40;;
28028;SDS011;15345;59.364;18.016;2023-08-12T05:18:16;3.50;;;1.20;;
28028;SDS011;15345;59.364;18.016;2023-08-12T05:19:35;2.00;;;1.20;;
28028;SDS011;15345;59.364;18.016;2023-08-12T05:20:54;3.22;;;1.40;;
28028;SDS011;15345;59.364;18.016;2023-08-12T05:22:13;2.05;;;1.40;;
28028;SDS011;15345;59.364;18.016;2023-08-12T05:23:32;1.98;;;1.40;;
28028;SDS011;15345;59.364;18.016;2023-08-12T05:24:51;1.38;;;1.05;;
28028;SDS011;15345;59.364;18.016;2023-08-12T05:26:09;2.05;;;1.10;;
28028;SDS011;15345;59.364;18.016;2023-08-12T05:27:28;2.85;;;1.30;;
28028;SDS011;15345;59.364;18.016;2023-08-12T05:28:47;3.92;;;1.52;;
28028;SDS011;15345;59.364;18.016;2023-08-12T05:30:06;1.00;;;0.95;;
28028;SDS011;15345;59.364;18.016;2023-08-12T05:31:25;1.80;;;1.42;;
28028;SDS011;15345;59.364;18.016;2023-08-12T05:32:44;2.47;;;1.38;;
28028;SDS011;15345;59.364;18.016;2023-08-12T05:34:03;7.00;;;2.45;;
28028;SDS011;15345;59.364;18.016;2023-08-12T05:35:22;1.73;;;1.10;;
28028;SDS011;15345;59.364;18.016;2023-08-12T05:36:41;2.22;;;1.20;;
28028;SDS011;15345;59.364;18.016;2023-08-12T05:38:00;2.20;;;1.25;;
28028;SDS011;15345;59.364;18.016;2023-08-12T05:39:19;3.13;;;1.10;;
28028;SDS011;15345;59.364;18.016;2023-08-12T05:40:38;4.75;;;1.20;;
28028;SDS011;15345;59.364;18.016;2023-08-12T05:41:57;3.17;;;1.60;;
28028;SDS011;15345;59.364;18.016;2023-08-12T05:43:16;5.63;;;1.75;;
28028;SDS011;15345;59.364;18.016;2023-08-12T05:44:35;2.03;;;1.20;;
28028;SDS011;15345;59.364;18.016;2023-08-12T05:45:54;1.30;;;1.20;;
28028;SDS011;15345;59.364;18.016;2023-08-12T05:47:13;2.63;;;1.33;;
28028;SDS011;15345;59.364;18.016;2023-08-12T05:48:32;2.85;;;1.30;;
28028;SDS011;15345;59.364;18.016;2023-08-12T05:49:51;1.50;;;1.00;;
28028;SDS011;15345;59.364;18.016;2023-08-12T05:51:10;4.05;;;1.27;;
28028;SDS011;15345;59.364;18.016;2023-08-12T05:52:29;1.92;;;1.30;;
28028;SDS011;15345;59.364;18.016;2023-08-12T05:53:48;2.92;;;1.10;;
28028;SDS011;15345;59.364;18.016;2023-08-12T05:55:07;2.17;;;1.10;;
28028;SDS011;15345;59.364;18.016;2023-08-12T05:56:26;2.33;;;1.27;;
28028;SDS011;15345;59.364;18.016;2023-08-12T05:57:45;2.80;;;1.30;;
28028;SDS011;15345;59.364;18.016;2023-08-12T05:59:04;3.60;;;1.10;;
28028;SDS011;15345;59.364;18.016;2023-08-12T06:00:23;2.42;;;1.20;;
28028;SDS011;15345;59.364;18.016;2023-08-12T06:01:42;2.42;;;1.10;;
28028;SDS011;15345;59.364;18.016;2023-08-12T06:03:01;3.50;;;1.35;;
28028;SDS011;15345;59.364;18.016;2023-08-12T06:04:20;2.33;;;0.90;;
28028;SDS011;15345;59.364;18.016;2023-08-12T06:05:40;3.15;;;1.02;;
28028;SDS011;15345;59.364;18.016;2023-08-12T06:07:00;3.45;;;1.35;;
28028;SDS011;15345;59.364;18.016;2023-08-12T06:08:19;2.78;;;1.48;;
28028;SDS011;15345;59.364;18.016;2023-08-12T06:09:37;2.58;;;1.10;;
28028;SDS011;15345;59.364;18.016;2023-08-12T06:10:56;4.43;;;1.00;;
28028;SDS011;15345;59.364;18.016;2023-08-12T06:12:15;3.30;;;1.33;;
28028;SDS011;15345;59.364;18.016;2023-08-12T06:13:34;1.65;;;0.85;;
28028;SDS011;15345;59.364;18.016;2023-08-12T06:14:53;3.08;;;1.00;;
28028;SDS011;15345;59.364;18.016;2023-08-12T06:16:12;3.80;;;1.20;;
28028;SDS011;15345;59.364;18.016;2023-08-12T06:17:31;1.73;;;1.13;;
28028;SDS011;15345;59.364;18.016;2023-08-12T06:18:50;1.95;;;1.23;;
28028;SDS011;15345;59.364;18.016;2023-08-12T06:20:09;5.07;;;1.02;;
28028;SDS011;15345;59.364;18.016;2023-08-12T06:21:28;1.92;;;0.98;;
28028;SDS011;15345;59.364;18.016;2023-08-12T06:22:47;2.90;;;1.10;;
28028;SDS011;15345;59.364;18.016;2023-08-12T06:24:06;1.23;;;0.90;;
28028;SDS011;15345;59.364;18.016;2023-08-12T06:25:25;1.98;;;1.10;;
28028;SDS011;15345;59.364;18.016;2023-08-12T06:26:44;2.08;;;1.10;;
28028;SDS011;15345;59.364;18.016;2023-08-12T06:28:03;3.45;;;1.00;;
28028;SDS011;15345;59.364;18.016;2023-08-12T06:29:23;2.70;;;1.23;;
28028;SDS011;15345;59.364;18.016;2023-08-12T06:30:44;1.63;;;1.08;;
28028;SDS011;15345;59.364;18.016;2023-08-12T06:32:03;7.25;;;1.10;;
28028;SDS011;15345;59.364;18.016;2023-08-12T06:33:22;3.25;;;1.08;;
28028;SDS011;15345;59.364;18.016;2023-08-12T06:34:41;2.13;;;0.82;;
28028;SDS011;15345;59.364;18.016;2023-08-12T06:36:00;1.00;;;0.90;;
28028;SDS011;15345;59.364;18.016;2023-08-12T06:37:19;1.63;;;1.00;;
28028;SDS011;15345;59.364;18.016;2023-08-12T06:38:38;3.22;;;1.17;;
28028;SDS011;15345;59.364;18.016;2023-08-12T06:39:57;1.52;;;0.73;;
28028;SDS011;15345;59.364;18.016;2023-08-12T06:41:16;2.53;;;0.90;;
28028;SDS011;15345;59.364;18.016;2023-08-12T06:42:35;2.33;;;0.90;;
28028;SDS011;15345;59.364;18.016;2023-08-12T06:43:54;3.53;;;0.82;;
28028;SDS011;15345;59.364;18.016;2023-08-12T06:45:13;1.85;;;0.80;;
28028;SDS011;15345;59.364;18.016;2023-08-12T06:46:32;1.33;;;1.00;;
28028;SDS011;15345;59.364;18.016;2023-08-12T06:47:50;2.20;;;1.00;;
28028;SDS011;15345;59.364;18.016;2023-08-12T06:49:09;1.70;;;1.05;;
28028;SDS011;15345;59.364;18.016;2023-08-12T06:50:28;3.10;;;1.00;;
28028;SDS011;15345;59.364;18.016;2023-08-12T06:51:49;3.58;;;0.85;;
28028;SDS011;15345;59.364;18.016;2023-08-12T06:53:08;2.08;;;1.20;;
28028;SDS011;15345;59.364;18.016;2023-08-12T06:54:27;2.25;;;0.90;;
28028;SDS011;15345;59.364;18.016;2023-08-12T06:55:45;4.18;;;1.20;;
28028;SDS011;15345;59.364;18.016;2023-08-12T06:57:04;2.70;;;0.85;;
28028;SDS011;15345;59.364;18.016;2023-08-12T06:58:23;8.77;;;1.10;;
28028;SDS011;15345;59.364;18.016;2023-08-12T06:59:42;4.65;;;1.92;;
28028;SDS011;15345;59.364;18.016;2023-08-12T07:01:01;3.72;;;0.90;;
28028;SDS011;15345;59.364;18.016;2023-08-12T07:02:20;1.88;;;0.98;;
28028;SDS011;15345;59.364;18.016;2023-08-12T07:03:39;2.75;;;0.88;;
28028;SDS011;15345;59.364;18.016;2023-08-12T07:04:58;1.40;;;1.20;;
28028;SDS011;15345;59.364;18.016;2023-08-12T07:06:17;2.03;;;0.90;;
28028;SDS011;15345;59.364;18.016;2023-08-12T07:07:36;4.18;;;1.15;;
28028;SDS011;15345;59.364;18.016;2023-08-12T07:08:55;1.88;;;0.98;;
28028;SDS011;15345;59.364;18.016;2023-08-12T07:10:15;1.95;;;1.00;;
28028;SDS011;15345;59.364;18.016;2023-08-12T07:11:34;2.42;;;1.00;;
28028;SDS011;15345;59.364;18.016;2023-08-12T07:12:53;2.33;;;0.90;;
28028;SDS011;15345;59.364;18.016;2023-08-12T07:14:12;3.78;;;1.17;;
28028;SDS011;15345;59.364;18.016;2023-08-12T07:15:31;3.38;;;1.17;;
28028;SDS011;15345;59.364;18.016;2023-08-12T07:16:50;2.50;;;1.00;;
28028;SDS011;15345;59.364;18.016;2023-08-12T07:18:09;2.97;;;1.00;;
28028;SDS011;15345;59.364;18.016;2023-08-12T07:19:28;2.10;;;0.93;;
28028;SDS011;15345;59.364;18.016;2023-08-12T07:20:47;4.07;;;1.25;;
28028;SDS011;15345;59.364;18.016;2023-08-12T07:22:06;2.08;;;0.93;;
28028;SDS011;15345;59.364;18.016;2023-08-12T07:23:26;1.98;;;1.00;;
28028;SDS011;15345;59.364;18.016;2023-08-12T07:24:45;2.95;;;1.30;;
28028;SDS011;15345;59.364;18.016;2023-08-12T07:26:04;3.58;;;1.13;;
28028;SDS011;15345;59.364;18.016;2023-08-12T07:27:23;2.92;;;1.00;;
28028;SDS011;15345;59.364;18.016;2023-08-12T07:28:42;2.10;;;1.02;;
28028;SDS011;15345;59.364;18.016;2023-08-12T07:30:01;1.83;;;0.90;;
28028;SDS011;15345;59.364;18.016;2023-08-12T07:31:20;2.80;;;0.93;;
28028;SDS011;15345;59.364;18.016;2023-08-12T07:32:39;5.60;;;1.38;;
28028;SDS011;15345;59.364;18.016;2023-08-12T07:33:58;1.85;;;1.00;;
28028;SDS011;15345;59.364;18.016;2023-08-12T07:35:17;2.08;;;0.85;;
28028;SDS011;15345;59.364;18.016;2023-08-12T07:36:36;3.53;;;1.88;;
28028;SDS011;15345;59.364;18.016;2023-08-12T07:37:55;3.40;;;1.02;;
28028;SDS011;15345;59.364;18.016;2023-08-12T07:39:13;2.92;;;1.25;;
28028;SDS011;15345;59.364;18.016;2023-08-12T07:40:33;5.07;;;1.40;;
28028;SDS011;15345;59.364;18.016;2023-08-12T07:41:52;2.53;;;1.10;;
28028;SDS011;15345;59.364;18.016;2023-08-12T07:43:11;3.80;;;1.13;;
28028;SDS011;15345;59.364;18.016;2023-08-12T07:44:30;1.90;;;0.90;;
28028;SDS011;15345;59.364;18.016;2023-08-12T07:45:52;4.40;;;1.00;;
28028;SDS011;15345;59.364;18.016;2023-08-12T07:48:31;1.73;;;1.10;;
28028;SDS011;15345;59.364;18.016;2023-08-12T07:49:50;2.35;;;0.90;;
28028;SDS011;15345;59.364;18.016;2023-08-12T07:51:09;2.90;;;1.00;;
28028;SDS011;15345;59.364;18.016;2023-08-12T07:52:28;3.67;;;1.15;;
28028;SDS011;15345;59.364;18.016;2023-08-12T07:53:46;2.30;;;0.93;;